sensor_id;sensor_type;location;lat;lon;timestamp;pressure;altitude;pressure_sealevel;temperature;humidity
28344;BME280;15597;50.914;6.638;2023-04-22T00:00:26;100073.78;;;16.39;50.22
28344;BME280;15597;50.914;6.638;2023-04-22T00:02:53;100072.94;;;16.38;50.21
28344;BME280;15597;50.914;6.638;2023-04-22T00:05:20;100077.19;;;16.41;50.33
28344;BME280;15597;50.914;6.638;2023-04-22T00:07:46;100071.13;;;16.39;50.05
28344;BME280;15597;50.914;6.638;2023-04-22T00:10:12;100066.00;;;16.35;50.10
28344;BME280;15597;50.914;6.638;2023-04-22T00:12:37;100068.75;;;16.34;50.22
28344;BME280;15597;50.914;6.638;2023-04-22T00:15:04;100063.63;;;16.31;50.12
28344;BME280;15597;50.914;6.638;2023-04-22T00:17:30;100059.28;;;16.30;50.17
28344;BME280;15597;50.914;6.638;2023-04-22T00:19:56;100060.22;;;16.29;49.97
28344;BME280;15597;50.914;6.638;2023-04-22T00:22:22;100061.16;;;16.28;50.21
28344;BME280;15597;50.914;6.638;2023-04-22T00:24:47;100059.47;;;16.27;50.16
28344;BME280;15597;50.914;6.638;2023-04-22T00:27:13;100058.59;;;16.26;50.25
28344;BME280;15597;50.914;6.638;2023-04-22T00:29:40;100063.03;;;16.26;50.21
28344;BME280;15597;50.914;6.638;2023-04-22T00:32:05;100059.63;;;16.24;50.14
28344;BME280;15597;50.914;6.638;2023-04-22T00:34:31;100064.81;;;16.25;50.09
28344;BME280;15597;50.914;6.638;2023-04-22T00:36:56;100063.19;;;16.23;50.01
28344;BME280;15597;50.914;6.638;2023-04-22T00:39:22;100054.50;;;16.20;50.19
28344;BME280;15597;50.914;6.638;2023-04-22T00:41:48;100060.63;;;16.21;50.08
28344;BME280;15597;50.914;6.638;2023-04-22T00:44:13;100055.34;;;16.21;49.95
28344;BME280;15597;50.914;6.638;2023-04-22T00:46:39;100052.81;;;16.19;49.93
28344;BME280;15597;50.914;6.638;2023-04-22T00:49:06;100056.22;;;16.21;50.21
28344;BME280;15597;50.914;6.638;2023-04-22T00:51:32;100054.34;;;16.24;50.04
28344;BME280;15597;50.914;6.638;2023-04-22T00:53:57;100054.41;;;16.22;49.99
28344;BME280;15597;50.914;6.638;2023-04-22T00:56:25;100060.78;;;16.18;49.99
28344;BME280;15597;50.914;6.638;2023-04-22T00:58:53;100063.53;;;16.16;50.08
28344;BME280;15597;50.914;6.638;2023-04-22T01:01:18;100056.63;;;16.14;50.08
28344;BME280;15597;50.914;6.638;2023-04-22T01:03:45;100063.69;;;16.13;50.13
28344;BME280;15597;50.914;6.638;2023-04-22T01:06:12;100065.56;;;16.11;50.06
28344;BME280;15597;50.914;6.638;2023-04-22T01:08:39;100060.28;;;16.11;50.03
28344;BME280;15597;50.914;6.638;2023-04-22T01:11:05;100058.59;;;16.10;50.20
28344;BME280;15597;50.914;6.638;2023-04-22T01:13:31;100054.22;;;16.09;50.07
28344;BME280;15597;50.914;6.638;2023-04-22T01:15:57;100060.28;;;16.11;49.97
28344;BME280;15597;50.914;6.638;2023-04-22T01:18:25;100053.31;;;16.10;50.02
28344;BME280;15597;50.914;6.638;2023-04-22T01:20:51;100052.38;;;16.11;50.00
28344;BME280;15597;50.914;6.638;2023-04-22T01:23:20;100058.59;;;16.10;49.73
28344;BME280;15597;50.914;6.638;2023-04-22T01:25:47;100050.56;;;16.12;49.89
28344;BME280;15597;50.914;6.638;2023-04-22T01:28:14;100054.13;;;16.11;50.08
28344;BME280;15597;50.914;6.638;2023-04-22T01:30:41;100051.59;;;16.09;49.93
28344;BME280;15597;50.914;6.638;2023-04-22T01:33:08;100051.59;;;16.09;49.96
28344;BME280;15597;50.914;6.638;2023-04-22T01:35:36;100056.88;;;16.09;49.98
28344;BME280;15597;50.914;6.638;2023-04-22T01:38:03;100053.47;;;16.07;49.94
28344;BME280;15597;50.914;6.638;2023-04-22T01:40:31;100053.47;;;16.07;50.02
28344;BME280;15597;50.914;6.638;2023-04-22T01:43:00;100048.34;;;16.04;50.01
28344;BME280;15597;50.914;6.638;2023-04-22T01:45:26;100049.13;;;16.06;49.98
28344;BME280;15597;50.914;6.638;2023-04-22T01:47:52;100046.47;;;16.06;50.02
28344;BME280;15597;50.914;6.638;2023-04-22T01:50:19;100051.75;;;16.06;49.95
28344;BME280;15597;50.914;6.638;2023-04-22T01:52:45;100049.34;;;16.01;50.04
28344;BME280;15597;50.914;6.638;2023-04-22T01:55:10;100048.69;;;15.98;50.25
28344;BME280;15597;50.914;6.638;2023-04-22T01:57:36;100052.31;;;15.95;50.17
28344;BME280;15597;50.914;6.638;2023-04-22T02:00:02;100045.44;;;15.93;50.25
28344;BME280;15597;50.914;6.638;2023-04-22T02:02:38;100036.88;;;15.87;50.16
28344;BME280;15597;50.914;6.638;2023-04-22T02:05:05;100033.59;;;15.82;50.40
28344;BME280;15597;50.914;6.638;2023-04-22T02:07:31;100032.06;;;15.78;50.51
28344;BME280;15597;50.914;6.638;2023-04-22T02:09:56;100026.16;;;15.73;50.48
28344;BME280;15597;50.914;6.638;2023-04-22T02:12:22;100027.09;;;15.72;50.59
28344;BME280;15597;50.914;6.638;2023-04-22T02:14:47;100023.53;;;15.73;50.77
28344;BME280;15597;50.914;6.638;2023-04-22T02:17:13;100023.53;;;15.73;50.76
28344;BME280;15597;50.914;6.638;2023-04-22T02:19:42;100027.97;;;15.72;50.73
28344;BME280;15597;50.914;6.638;2023-04-22T02:22:07;100023.53;;;15.73;50.72
28344;BME280;15597;50.914;6.638;2023-04-22T02:24:34;100019.19;;;15.72;50.87
28344;BME280;15597;50.914;6.638;2023-04-22T02:26:59;100019.19;;;15.72;50.82
28344;BME280;15597;50.914;6.638;2023-04-22T02:29:26;100022.75;;;15.71;50.73
28344;BME280;15597;50.914;6.638;2023-04-22T02:31:56;100025.38;;;15.71;50.73
28344;BME280;15597;50.914;6.638;2023-04-22T02:34:21;100026.25;;;15.71;50.91
28344;BME280;15597;50.914;6.638;2023-04-22T02:36:47;100027.09;;;15.72;50.95
28344;BME280;15597;50.914;6.638;2023-04-22T02:39:13;100018.41;;;15.70;50.91
28344;BME280;15597;50.914;6.638;2023-04-22T02:41:39;100023.69;;;15.70;50.89
28344;BME280;15597;50.914;6.638;2023-04-22T02:44:04;100024.63;;;15.69;50.86
28344;BME280;15597;50.914;6.638;2023-04-22T02:46:30;100023.84;;;15.67;50.78
28344;BME280;15597;50.914;6.638;2023-04-22T02:48:56;100015.16;;;15.65;51.00
28344;BME280;15597;50.914;6.638;2023-04-22T02:51:22;100013.41;;;15.65;50.87
28344;BME280;15597;50.914;6.638;2023-04-22T02:53:47;100017.91;;;15.63;51.04
28344;BME280;15597;50.914;6.638;2023-04-22T02:56:13;100012.69;;;15.61;51.10
28344;BME280;15597;50.914;6.638;2023-04-22T02:58:38;100006.56;;;15.61;51.02
28344;BME280;15597;50.914;6.638;2023-04-22T03:01:04;100012.78;;;15.60;50.89
28344;BME280;15597;50.914;6.638;2023-04-22T03:03:30;100017.19;;;15.59;51.14
28344;BME280;15597;50.914;6.638;2023-04-22T03:05:56;99999.66;;;15.58;50.95
28344;BME280;15597;50.914;6.638;2023-04-22T03:08:22;100004.94;;;15.58;51.29
28344;BME280;15597;50.914;6.638;2023-04-22T03:10:48;99997.97;;;15.57;51.22
28344;BME280;15597;50.914;6.638;2023-04-22T03:13:13;99999.81;;;15.55;51.22
28344;BME280;15597;50.914;6.638;2023-04-22T03:15:40;100005.09;;;15.55;51.54
28344;BME280;15597;50.914;6.638;2023-04-22T03:18:06;100001.69;;;15.53;51.36
28344;BME280;15597;50.914;6.638;2023-04-22T03:20:31;99993.00;;;15.51;51.38
28344;BME280;15597;50.914;6.638;2023-04-22T03:22:57;99997.44;;;15.51;51.42
28344;BME280;15597;50.914;6.638;2023-04-22T03:25:26;99998.44;;;15.48;51.48
28344;BME280;15597;50.914;6.638;2023-04-22T03:27:53;100006.19;;;15.33;51.54
28344;BME280;15597;50.914;6.638;2023-04-22T03:30:19;99997.34;;;15.34;51.56
28344;BME280;15597;50.914;6.638;2023-04-22T03:32:46;100006.03;;;15.37;51.76
28344;BME280;15597;50.914;6.638;2023-04-22T03:35:20;99993.69;;;15.37;51.68
28344;BME280;15597;50.914;6.638;2023-04-22T03:37:48;99992.81;;;15.38;51.84
28344;BME280;15597;50.914;6.638;2023-04-22T03:40:18;99990.06;;;15.40;51.76
28344;BME280;15597;50.914;6.638;2023-04-22T03:42:43;99981.31;;;15.39;51.77
28344;BME280;15597;50.914;6.638;2023-04-22T03:45:10;99977.81;;;15.39;51.56
28344;BME280;15597;50.914;6.638;2023-04-22T03:47:41;99968.22;;;15.38;51.83
28344;BME280;15597;50.914;6.638;2023-04-22T03:50:16;99961.28;;;15.35;52.02
28344;BME280;15597;50.914;6.638;2023-04-22T03:52:42;99962.16;;;15.36;51.69
28344;BME280;15597;50.914;6.638;2023-04-22T03:55:08;99958.59;;;15.37;51.71
28344;BME280;15597;50.914;6.638;2023-04-22T03:57:34;99950.69;;;15.37;51.81
28344;BME280;15597;50.914;6.638;2023-04-22T04:00:00;99951.63;;;15.36;51.92
28344;BME280;15597;50.914;6.638;2023-04-22T04:02:26;99946.34;;;15.36;51.70
28344;BME280;15597;50.914;6.638;2023-04-22T04:04:51;99950.69;;;15.37;51.83
28344;BME280;15597;50.914;6.638;2023-04-22T04:07:18;99945.41;;;15.37;51.81
28344;BME280;15597;50.914;6.638;2023-04-22T04:09:44;99956.72;;;15.39;52.01
28344;BME280;15597;50.914;6.638;2023-04-22T04:12:10;99959.38;;;15.39;51.86
28344;BME280;15597;50.914;6.638;2023-04-22T04:14:41;99952.31;;;15.39;51.97
28344;BME280;15597;50.914;6.638;2023-04-22T04:17:08;99945.25;;;15.40;51.98
28344;BME280;15597;50.914;6.638;2023-04-22T04:19:35;99944.31;;;15.41;51.89
28344;BME280;15597;50.914;6.638;2023-04-22T04:22:01;99941.69;;;15.41;51.81
28344;BME280;15597;50.914;6.638;2023-04-22T04:24:29;99942.47;;;15.43;51.92
28344;BME280;15597;50.914;6.638;2023-04-22T04:27:02;99949.44;;;15.44;51.83
28344;BME280;15597;50.914;6.638;2023-04-22T04:29:34;99946.72;;;15.45;51.75
28344;BME280;15597;50.914;6.638;2023-04-22T04:32:09;99942.28;;;15.46;51.70
28344;BME280;15597;50.914;6.638;2023-04-22T04:34:37;99940.44;;;15.48;51.72
28344;BME280;15597;50.914;6.638;2023-04-22T04:37:04;99928.94;;;15.49;51.57
28344;BME280;15597;50.914;6.638;2023-04-22T04:39:39;99936.03;;;15.48;51.59
28344;BME280;15597;50.914;6.638;2023-04-22T04:42:07;99933.28;;;15.50;51.68
28344;BME280;15597;50.914;6.638;2023-04-22T04:44:41;99930.50;;;15.53;51.59
28344;BME280;15597;50.914;6.638;2023-04-22T04:47:07;99925.06;;;15.56;51.49
28344;BME280;15597;50.914;6.638;2023-04-22T04:49:33;99925.81;;;15.58;51.49
28344;BME280;15597;50.914;6.638;2023-04-22T04:52:04;99927.53;;;15.59;51.45
28344;BME280;15597;50.914;6.638;2023-04-22T04:54:30;99929.22;;;15.60;51.43
28344;BME280;15597;50.914;6.638;2023-04-22T04:56:57;99932.81;;;15.59;51.31
28344;BME280;15597;50.914;6.638;2023-04-22T04:59:25;99925.66;;;15.61;51.29
28344;BME280;15597;50.914;6.638;2023-04-22T05:01:51;99929.16;;;15.62;51.33
28344;BME280;15597;50.914;6.638;2023-04-22T05:04:17;99925.66;;;15.61;51.22
28344;BME280;15597;50.914;6.638;2023-04-22T05:06:43;99918.69;;;15.60;51.41
28344;BME280;15597;50.914;6.638;2023-04-22T05:09:08;99923.97;;;15.60;51.36
28344;BME280;15597;50.914;6.638;2023-04-22T05:11:35;99936.22;;;15.61;51.36
28344;BME280;15597;50.914;6.638;2023-04-22T05:14:06;99927.53;;;15.59;51.40
28344;BME280;15597;50.914;6.638;2023-04-22T05:16:36;99929.22;;;15.60;51.45
28344;BME280;15597;50.914;6.638;2023-04-22T05:19:02;99928.41;;;15.60;51.50
28344;BME280;15597;50.914;6.638;2023-04-22T05:21:28;99931.88;;;15.60;51.51
28344;BME280;15597;50.914;6.638;2023-04-22T05:23:54;99927.38;;;15.62;51.50
28344;BME280;15597;50.914;6.638;2023-04-22T05:26:19;99928.22;;;15.63;51.63
28344;BME280;15597;50.914;6.638;2023-04-22T05:28:47;99935.13;;;15.66;51.33
28344;BME280;15597;50.914;6.638;2023-04-22T05:31:15;99938.63;;;15.66;51.48
28344;BME280;15597;50.914;6.638;2023-04-22T05:33:41;99936.75;;;15.68;51.53
28344;BME280;15597;50.914;6.638;2023-04-22T05:36:07;99934.19;;;15.67;51.44
28344;BME280;15597;50.914;6.638;2023-04-22T05:38:33;99934.19;;;15.67;51.43
28344;BME280;15597;50.914;6.638;2023-04-22T05:40:59;99929.94;;;15.64;51.50
28344;BME280;15597;50.914;6.638;2023-04-22T05:43:25;99931.03;;;15.60;51.76
28344;BME280;15597;50.914;6.638;2023-04-22T05:46:04;99931.09;;;15.58;51.53
28344;BME280;15597;50.914;6.638;2023-04-22T05:48:32;99925.06;;;15.56;51.70
28344;BME280;15597;50.914;6.638;2023-04-22T05:51:01;99922.59;;;15.53;51.89
28344;BME280;15597;50.914;6.638;2023-04-22T05:53:28;99925.31;;;15.52;51.75
28344;BME280;15597;50.914;6.638;2023-04-22T05:55:55;99936.88;;;15.49;52.27
28344;BME280;15597;50.914;6.638;2023-04-22T05:58:22;99940.38;;;15.50;52.33
28344;BME280;15597;50.914;6.638;2023-04-22T06:00:52;99943.00;;;15.50;52.33
28344;BME280;15597;50.914;6.638;2023-04-22T06:03:37;99936.09;;;15.47;52.38
28344;BME280;15597;50.914;6.638;2023-04-22T06:06:02;99934.38;;;15.46;52.32
28344;BME280;15597;50.914;6.638;2023-04-22T06:08:29;99935.31;;;15.45;52.44
28344;BME280;15597;50.914;6.638;2023-04-22T06:10:55;99933.72;;;15.42;52.58
28344;BME280;15597;50.914;6.638;2023-04-22T06:13:22;99931.13;;;15.41;52.80
28344;BME280;15597;50.914;6.638;2023-04-22T06:15:48;99932.94;;;15.40;52.63
28344;BME280;15597;50.914;6.638;2023-04-22T06:18:14;99929.44;;;15.40;52.95
28344;BME280;15597;50.914;6.638;2023-04-22T06:20:39;99933.78;;;15.41;52.74
28344;BME280;15597;50.914;6.638;2023-04-22T06:23:05;99928.59;;;15.39;52.85
28344;BME280;15597;50.914;6.638;2023-04-22T06:25:31;99924.16;;;15.40;53.13
28344;BME280;15597;50.914;6.638;2023-04-22T06:27:57;99928.34;;;15.44;53.16
28344;BME280;15597;50.914;6.638;2023-04-22T06:30:24;99919.50;;;15.45;53.20
28344;BME280;15597;50.914;6.638;2023-04-22T06:32:50;99919.50;;;15.45;53.34
28344;BME280;15597;50.914;6.638;2023-04-22T06:35:16;99922.91;;;15.47;53.36
28344;BME280;15597;50.914;6.638;2023-04-22T06:37:42;99915.78;;;15.49;53.02
28344;BME280;15597;50.914;6.638;2023-04-22T06:40:09;99919.19;;;15.51;53.00
28344;BME280;15597;50.914;6.638;2023-04-22T06:42:46;99920.88;;;15.52;52.99
28344;BME280;15597;50.914;6.638;2023-04-22T06:45:35;99920.72;;;15.55;53.19
28344;BME280;15597;50.914;6.638;2023-04-22T06:48:19;99919.72;;;15.58;53.09
28344;BME280;15597;50.914;6.638;2023-04-22T06:51:06;99917.84;;;15.60;53.32
28344;BME280;15597;50.914;6.638;2023-04-22T06:53:31;99915.81;;;15.65;53.07
28344;BME280;15597;50.914;6.638;2023-04-22T06:55:57;99923.56;;;15.68;53.03
28344;BME280;15597;50.914;6.638;2023-04-22T06:58:22;99926.09;;;15.70;53.14
28344;BME280;15597;50.914;6.638;2023-04-22T07:00:48;99918.91;;;15.73;53.39
28344;BME280;15597;50.914;6.638;2023-04-22T07:03:14;99917.84;;;15.76;53.85
28344;BME280;15597;50.914;6.638;2023-04-22T07:05:40;99924.69;;;15.80;53.36
28344;BME280;15597;50.914;6.638;2023-04-22T07:08:07;99909.63;;;15.82;53.34
28344;BME280;15597;50.914;6.638;2023-04-22T07:10:32;99906.03;;;15.83;53.21
28344;BME280;15597;50.914;6.638;2023-04-22T07:13:33;99908.50;;;15.86;53.36
28344;BME280;15597;50.914;6.638;2023-04-22T07:16:00;99915.38;;;15.90;53.57
28344;BME280;15597;50.914;6.638;2023-04-22T07:18:26;99911.66;;;15.95;53.28
28344;BME280;15597;50.914;6.638;2023-04-22T07:20:51;99906.03;;;16.01;53.41
28344;BME280;15597;50.914;6.638;2023-04-22T07:23:17;99909.25;;;16.06;53.11
28344;BME280;15597;50.914;6.638;2023-04-22T07:25:42;99901.94;;;16.11;53.36
28344;BME280;15597;50.914;6.638;2023-04-22T07:28:08;99892.91;;;16.15;53.13
28344;BME280;15597;50.914;6.638;2023-04-22T07:30:34;99894.44;;;16.19;52.85
28344;BME280;15597;50.914;6.638;2023-04-22T07:32:59;99902.94;;;16.25;52.87
28344;BME280;15597;50.914;6.638;2023-04-22T07:35:25;99894.94;;;16.26;52.83
28344;BME280;15597;50.914;6.638;2023-04-22T07:37:53;99886.75;;;16.31;52.92
28344;BME280;15597;50.914;6.638;2023-04-22T07:40:19;99883.94;;;16.34;52.54
28344;BME280;15597;50.914;6.638;2023-04-22T07:42:45;99878.38;;;16.39;52.86
28344;BME280;15597;50.914;6.638;2023-04-22T07:45:11;99879.09;;;16.42;52.35
28344;BME280;15597;50.914;6.638;2023-04-22T07:47:37;99886.81;;;16.45;52.77
28344;BME280;15597;50.914;6.638;2023-04-22T07:50:04;99884.88;;;16.49;52.63
28344;BME280;15597;50.914;6.638;2023-04-22T07:52:30;99873.19;;;16.53;52.49
28344;BME280;15597;50.914;6.638;2023-04-22T07:54:55;99876.66;;;16.54;52.54
28344;BME280;15597;50.914;6.638;2023-04-22T07:57:21;99870.56;;;16.53;52.47
28344;BME280;15597;50.914;6.638;2023-04-22T07:59:50;99873.25;;;16.52;52.58
28344;BME280;15597;50.914;6.638;2023-04-22T08:02:16;99865.94;;;16.57;52.74
28344;BME280;15597;50.914;6.638;2023-04-22T08:04:42;99871.03;;;16.60;52.74
28344;BME280;15597;50.914;6.638;2023-04-22T08:07:08;99870.97;;;16.61;52.91
28344;BME280;15597;50.914;6.638;2023-04-22T08:09:34;99868.97;;;16.65;52.96
28344;BME280;15597;50.914;6.638;2023-04-22T08:11:59;99859.91;;;16.69;52.87
28344;BME280;15597;50.914;6.638;2023-04-22T08:14:25;99860.50;;;16.74;52.77
28344;BME280;15597;50.914;6.638;2023-04-22T08:16:51;99857.41;;;16.82;53.08
28344;BME280;15597;50.914;6.638;2023-04-22T08:19:18;99856.94;;;16.90;53.15
28344;BME280;15597;50.914;6.638;2023-04-22T08:21:43;99850.41;;;16.97;53.11
28344;BME280;15597;50.914;6.638;2023-04-22T08:24:09;99852.69;;;17.03;52.93
28344;BME280;15597;50.914;6.638;2023-04-22T08:26:35;99848.91;;;17.07;52.70
28344;BME280;15597;50.914;6.638;2023-04-22T08:29:03;99855.91;;;17.08;52.42
28344;BME280;15597;50.914;6.638;2023-04-22T08:31:28;99858.25;;;17.13;52.51
28344;BME280;15597;50.914;6.638;2023-04-22T08:33:54;99846.66;;;17.16;52.55
28344;BME280;15597;50.914;6.638;2023-04-22T08:36:20;99844.56;;;17.21;52.81
28344;BME280;15597;50.914;6.638;2023-04-22T08:38:48;99848.63;;;17.27;52.59
28344;BME280;15597;50.914;6.638;2023-04-22T08:41:14;99851.00;;;17.31;52.80
28344;BME280;15597;50.914;6.638;2023-04-22T08:43:40;99852.13;;;17.42;52.66
28344;BME280;15597;50.914;6.638;2023-04-22T08:46:06;99846.06;;;17.54;52.60
28344;BME280;15597;50.914;6.638;2023-04-22T08:48:32;99833.00;;;17.65;52.52
28344;BME280;15597;50.914;6.638;2023-04-22T08:50:57;99839.97;;;17.81;52.93
28344;BME280;15597;50.914;6.638;2023-04-22T08:53:24;99840.13;;;17.92;52.53
28344;BME280;15597;50.914;6.638;2023-04-22T08:55:50;99834.19;;;18.03;52.41
28344;BME280;15597;50.914;6.638;2023-04-22T08:58:16;99838.78;;;18.14;52.22
28344;BME280;15597;50.914;6.638;2023-04-22T09:00:43;99834.59;;;18.24;51.79
28344;BME280;15597;50.914;6.638;2023-04-22T09:03:09;99831.53;;;18.31;51.80
28344;BME280;15597;50.914;6.638;2023-04-22T09:05:36;99835.47;;;18.38;51.35
28344;BME280;15597;50.914;6.638;2023-04-22T09:08:04;99833.16;;;18.46;51.56
28344;BME280;15597;50.914;6.638;2023-04-22T09:10:30;99833.59;;;18.53;51.59
28344;BME280;15597;50.914;6.638;2023-04-22T09:12:56;99833.22;;;18.59;51.43
28344;BME280;15597;50.914;6.638;2023-04-22T09:15:23;99831.09;;;18.64;51.24
28344;BME280;15597;50.914;6.638;2023-04-22T09:17:50;99822.81;;;18.69;51.40
28344;BME280;15597;50.914;6.638;2023-04-22T09:20:16;99826.94;;;18.73;51.09
28344;BME280;15597;50.914;6.638;2023-04-22T09:22:48;99823.34;;;18.74;51.13
28344;BME280;15597;50.914;6.638;2023-04-22T09:25:18;99825.56;;;18.80;51.11
28344;BME280;15597;50.914;6.638;2023-04-22T09:27:48;99820.19;;;18.82;50.91
28344;BME280;15597;50.914;6.638;2023-04-22T09:30:16;99821.34;;;18.91;51.12
28344;BME280;15597;50.914;6.638;2023-04-22T09:32:51;99817.66;;;18.93;50.96
28344;BME280;15597;50.914;6.638;2023-04-22T09:35:26;99825.28;;;18.98;51.05
28344;BME280;15597;50.914;6.638;2023-04-22T09:37:52;99808.00;;;19.05;50.88
28344;BME280;15597;50.914;6.638;2023-04-22T09:40:18;99810.34;;;19.10;50.54
28344;BME280;15597;50.914;6.638;2023-04-22T09:42:48;99811.84;;;19.14;50.76
28344;BME280;15597;50.914;6.638;2023-04-22T09:45:32;99805.47;;;19.17;50.72
28344;BME280;15597;50.914;6.638;2023-04-22T09:48:08;99811.19;;;19.23;50.70
28344;BME280;15597;50.914;6.638;2023-04-22T09:50:36;99820.94;;;19.36;50.16
28344;BME280;15597;50.914;6.638;2023-04-22T09:53:05;99832.19;;;19.39;50.25
28344;BME280;15597;50.914;6.638;2023-04-22T09:55:33;99827.06;;;19.49;49.84
28344;BME280;15597;50.914;6.638;2023-04-22T09:58:05;99829.41;;;19.54;49.86
28344;BME280;15597;50.914;6.638;2023-04-22T10:00:31;99837.88;;;19.59;49.70
28344;BME280;15597;50.914;6.638;2023-04-22T10:02:57;99833.81;;;19.66;49.96
28344;BME280;15597;50.914;6.638;2023-04-22T10:05:22;99826.16;;;19.75;49.19
28344;BME280;15597;50.914;6.638;2023-04-22T10:07:51;99827.63;;;19.79;49.20
28344;BME280;15597;50.914;6.638;2023-04-22T10:10:17;99838.03;;;19.82;49.13
28344;BME280;15597;50.914;6.638;2023-04-22T10:12:42;99831.88;;;19.81;48.87
28344;BME280;15597;50.914;6.638;2023-04-22T10:15:09;99840.16;;;19.77;48.71
28344;BME280;15597;50.914;6.638;2023-04-22T10:17:38;99851.84;;;19.74;48.84
28344;BME280;15597;50.914;6.638;2023-04-22T10:20:08;99848.34;;;19.74;48.61
28344;BME280;15597;50.914;6.638;2023-04-22T10:22:39;99851.22;;;19.70;48.73
28344;BME280;15597;50.914;6.638;2023-04-22T10:25:19;99854.53;;;19.61;48.78
28344;BME280;15597;50.914;6.638;2023-04-22T10:27:52;99857.63;;;19.55;49.08
28344;BME280;15597;50.914;6.638;2023-04-22T10:30:29;99860.28;;;19.55;49.11
28344;BME280;15597;50.914;6.638;2023-04-22T10:32:55;99858.66;;;19.65;49.34
28344;BME280;15597;50.914;6.638;2023-04-22T10:35:27;99852.91;;;19.71;49.34
28344;BME280;15597;50.914;6.638;2023-04-22T10:37:56;99852.66;;;19.88;49.07
28344;BME280;15597;50.914;6.638;2023-04-22T10:40:21;99853.59;;;19.99;49.13
28344;BME280;15597;50.914;6.638;2023-04-22T10:42:50;99862.81;;;20.07;48.58
28344;BME280;15597;50.914;6.638;2023-04-22T10:45:17;99846.22;;;20.16;48.75
28344;BME280;15597;50.914;6.638;2023-04-22T10:47:43;99852.78;;;20.23;48.42
28344;BME280;15597;50.914;6.638;2023-04-22T10:52:34;99845.31;;;20.28;48.13
28344;BME280;15597;50.914;6.638;2023-04-22T10:55:00;99855.94;;;20.28;48.27
28344;BME280;15597;50.914;6.638;2023-04-22T10:57:45;99848.94;;;20.27;48.36
28344;BME280;15597;50.914;6.638;2023-04-22T11:03:09;99847.25;;;20.26;48.41
28344;BME280;15597;50.914;6.638;2023-04-22T11:05:36;99842.31;;;20.33;48.08
28344;BME280;15597;50.914;6.638;2023-04-22T11:08:05;99832.31;;;20.37;48.10
28344;BME280;15597;50.914;6.638;2023-04-22T11:10:38;99835.69;;;20.39;48.05
28344;BME280;15597;50.914;6.638;2023-04-22T11:13:25;99834.38;;;20.44;48.46
28344;BME280;15597;50.914;6.638;2023-04-22T11:15:53;99830.69;;;20.58;48.22
28344;BME280;15597;50.914;6.638;2023-04-22T11:18:25;99832.63;;;20.68;48.39
28344;BME280;15597;50.914;6.638;2023-04-22T11:20:52;99828.59;;;20.86;47.78
28344;BME280;15597;50.914;6.638;2023-04-22T11:23:21;99825.94;;;20.98;47.39
28344;BME280;15597;50.914;6.638;2023-04-22T11:25:47;99823.31;;;21.09;47.63
28344;BME280;15597;50.914;6.638;2023-04-22T11:28:19;99821.13;;;21.14;47.30
28344;BME280;15597;50.914;6.638;2023-04-22T11:30:44;99824.53;;;21.28;47.03
28344;BME280;15597;50.914;6.638;2023-04-22T11:33:14;99820.53;;;21.34;46.84
28344;BME280;15597;50.914;6.638;2023-04-22T11:35:40;99827.19;;;21.39;46.96
28344;BME280;15597;50.914;6.638;2023-04-22T11:38:07;99832.28;;;21.42;46.92
28344;BME280;15597;50.914;6.638;2023-04-22T11:40:35;99827.44;;;21.48;46.65
28344;BME280;15597;50.914;6.638;2023-04-22T11:43:03;99834.94;;;21.54;46.64
28344;BME280;15597;50.914;6.638;2023-04-22T11:45:31;99830.81;;;21.61;46.91
28344;BME280;15597;50.914;6.638;2023-04-22T11:47:58;99837.47;;;21.67;46.28
28344;BME280;15597;50.914;6.638;2023-04-22T11:50:31;99830.19;;;21.69;46.58
28344;BME280;15597;50.914;6.638;2023-04-22T11:53:10;99832.75;;;21.70;46.16
28344;BME280;15597;50.914;6.638;2023-04-22T11:55:38;99826.94;;;21.77;46.35
28344;BME280;15597;50.914;6.638;2023-04-22T11:58:06;99830.06;;;21.82;46.62
28344;BME280;15597;50.914;6.638;2023-04-22T12:00:33;99830.34;;;21.67;46.46
28344;BME280;15597;50.914;6.638;2023-04-22T12:03:06;99830.81;;;21.72;46.58
28344;BME280;15597;50.914;6.638;2023-04-22T12:05:38;99832.88;;;21.80;46.37
28344;BME280;15597;50.914;6.638;2023-04-22T12:08:15;99824.53;;;21.73;46.13
28344;BME280;15597;50.914;6.638;2023-04-22T12:10:44;99822.94;;;21.71;46.39
28344;BME280;15597;50.914;6.638;2023-04-22T12:13:27;99837.94;;;21.60;46.16
28344;BME280;15597;50.914;6.638;2023-04-22T12:15:57;99830.59;;;21.64;46.18
28344;BME280;15597;50.914;6.638;2023-04-22T12:19:06;99828.13;;;21.61;46.29
28344;BME280;15597;50.914;6.638;2023-04-22T12:21:25;99838.31;;;21.67;46.63
28344;BME280;15597;50.914;6.638;2023-04-22T12:23:53;99844.38;;;21.47;46.69
28344;BME280;15597;50.914;6.638;2023-04-22T12:26:21;99847.75;;;21.49;47.01
28344;BME280;15597;50.914;6.638;2023-04-22T12:28:48;99848.00;;;21.57;46.85
28344;BME280;15597;50.914;6.638;2023-04-22T12:31:15;99837.81;;;21.62;47.01
28344;BME280;15597;50.914;6.638;2023-04-22T12:33:42;99848.97;;;21.67;46.84
28344;BME280;15597;50.914;6.638;2023-04-22T12:36:08;99850.66;;;21.68;46.66
28344;BME280;15597;50.914;6.638;2023-04-22T12:38:34;99851.38;;;21.70;46.86
28344;BME280;15597;50.914;6.638;2023-04-22T12:41:00;99851.50;;;21.69;47.00
28344;BME280;15597;50.914;6.638;2023-04-22T12:43:26;99863.25;;;21.66;46.95
28344;BME280;15597;50.914;6.638;2023-04-22T12:45:52;99863.50;;;21.63;47.13
28344;BME280;15597;50.914;6.638;2023-04-22T12:48:17;99872.66;;;21.59;46.85
28344;BME280;15597;50.914;6.638;2023-04-22T12:50:43;99870.50;;;21.53;47.01
28344;BME280;15597;50.914;6.638;2023-04-22T12:53:09;99874.63;;;21.45;47.71
28344;BME280;15597;50.914;6.638;2023-04-22T12:55:35;99874.22;;;21.39;47.43
28344;BME280;15597;50.914;6.638;2023-04-22T12:58:01;99868.44;;;21.34;47.56
28344;BME280;15597;50.914;6.638;2023-04-22T13:00:27;99868.81;;;21.29;48.00
28344;BME280;15597;50.914;6.638;2023-04-22T13:02:52;99875.09;;;21.28;48.26
28344;BME280;15597;50.914;6.638;2023-04-22T13:05:18;99871.47;;;21.29;47.89